sensor_id;sensor_type;location;lat;lon;timestamp;pressure;altitude;pressure_sealevel;temperature;humidity
31346;BME280;21711;49.708;18.568;2022-11-15T00:01:56;97600.47;;;5.72;100.00
31346;BME280;21711;49.708;18.568;2022-11-15T00:04:42;97603.31;;;5.83;100.00
31346;BME280;21711;49.708;18.568;2022-11-15T00:07:28;97595.75;;;5.86;100.00
31346;BME280;21711;49.708;18.568;2022-11-15T00:10:34;97598.50;;;5.79;100.00
31346;BME280;21711;49.708;18.568;2022-11-15T00:13:20;97607.50;;;5.31;100.00
31346;BME280;21711;49.708;18.568;2022-11-15T00:16:06;97607.03;;;5.10;100.00
31346;BME280;21711;49.708;18.568;2022-11-15T00:18:52;97604.59;;;4.60;100.00
31346;BME280;21711;49.708;18.568;2022-11-15T00:21:38;97614.03;;;4.50;100.00
31346;BME280;21711;49.708;18.568;2022-11-15T00:24:24;97610.25;;;4.33;100.00
31346;BME280;21711;49.708;18.568;2022-11-15T00:27:10;97617.25;;;4.21;100.00
31346;BME280;21711;49.708;18.568;2022-11-15T00:29:55;97598.78;;;4.16;100.00
31346;BME280;21711;49.708;18.568;2022-11-15T00:32:41;97603.66;;;3.81;100.00
31346;BME280;21711;49.708;18.568;2022-11-15T00:35:27;97600.91;;;3.76;100.00
31346;BME280;21711;49.708;18.568;2022-11-15T00:38:12;97603.59;;;3.70;100.00
31346;BME280;21711;49.708;18.568;2022-11-15T00:40:58;97600.03;;;3.64;100.00
31346;BME280;21711;49.708;18.568;2022-11-15T00:43:49;97592.38;;;3.25;100.00
31346;BME280;21711;49.708;18.568;2022-11-15T00:46:35;97597.56;;;3.32;100.00
31346;BME280;21711;49.708;18.568;2022-11-15T00:49:20;97592.53;;;3.49;100.00
31346;BME280;21711;49.708;18.568;2022-11-15T00:52:07;97592.13;;;3.33;100.00
31346;BME280;21711;49.708;18.568;2022-11-15T00:54:52;97594.28;;;3.18;100.00
31346;BME280;21711;49.708;18.568;2022-11-15T00:57:38;97590.38;;;3.27;100.00
31346;BME280;21711;49.708;18.568;2022-11-15T01:00:23;97594.28;;;3.18;100.00
31346;BME280;21711;49.708;18.568;2022-11-15T01:03:09;97590.97;;;3.03;100.00
31346;BME280;21711;49.708;18.568;2022-11-15T01:05:59;97587.50;;;2.91;100.00
31346;BME280;21711;49.708;18.568;2022-11-15T01:08:45;97578.63;;;2.92;100.00
31346;BME280;21711;49.708;18.568;2022-11-15T01:11:31;97566.84;;;2.83;100.00
31346;BME280;21711;49.708;18.568;2022-11-15T01:14:17;97571.72;;;2.79;100.00
31346;BME280;21711;49.708;18.568;2022-11-15T01:17:09;97571.22;;;2.63;100.00
31346;BME280;21711;49.708;18.568;2022-11-15T01:19:55;97573.56;;;2.72;100.00
31346;BME280;21711;49.708;18.568;2022-11-15T01:22:40;97569.31;;;2.52;100.00
31346;BME280;21711;49.708;18.568;2022-11-15T01:25:26;97562.53;;;2.44;100.00
31346;BME280;21711;49.708;18.568;2022-11-15T01:28:12;97563.34;;;2.45;100.00
31346;BME280;21711;49.708;18.568;2022-11-15T01:31:04;97559.16;;;2.37;100.00
31346;BME280;21711;49.708;18.568;2022-11-15T01:33:50;97549.34;;;2.39;100.00
31346;BME280;21711;49.708;18.568;2022-11-15T01:36:36;97546.66;;;2.46;100.00
31346;BME280;21711;49.708;18.568;2022-11-15T01:39:22;97546.47;;;2.47;100.00
31346;BME280;21711;49.708;18.568;2022-11-15T01:42:13;97541.91;;;2.61;100.00
31346;BME280;21711;49.708;18.568;2022-11-15T01:44:59;97533.31;;;2.80;100.00
31346;BME280;21711;49.708;18.568;2022-11-15T01:47:52;97533.91;;;2.82;100.00
31346;BME280;21711;49.708;18.568;2022-11-15T01:50:39;97518.53;;;2.92;100.00
31346;BME280;21711;49.708;18.568;2022-11-15T01:53:26;97517.19;;;3.08;100.00
31346;BME280;21711;49.708;18.568;2022-11-15T01:56:20;97522.34;;;3.34;100.00
31346;BME280;21711;49.708;18.568;2022-11-15T01:59:09;97515.28;;;3.34;100.00
31346;BME280;21711;49.708;18.568;2022-11-15T02:01:55;97512.97;;;3.26;100.00
31346;BME280;21711;49.708;18.568;2022-11-15T02:04:45;97507.44;;;3.15;100.00
31346;BME280;21711;49.708;18.568;2022-11-15T02:07:32;97500.25;;;3.11;100.00
31346;BME280;21711;49.708;18.568;2022-11-15T02:10:23;97502.44;;;3.14;100.00
31346;BME280;21711;49.708;18.568;2022-11-15T02:13:10;97497.44;;;3.31;100.00
31346;BME280;21711;49.708;18.568;2022-11-15T02:31:51;97478.38;;;3.42;100.00
31346;BME280;21711;49.708;18.568;2022-11-15T02:35:05;97470.03;;;3.52;100.00
31346;BME280;21711;49.708;18.568;2022-11-15T02:41:10;97474.91;;;3.61;100.00
31346;BME280;21711;49.708;18.568;2022-11-15T02:47:07;97462.81;;;3.48;100.00
31346;BME280;21711;49.708;18.568;2022-11-15T02:50:09;97461.22;;;3.47;100.00
31346;BME280;21711;49.708;18.568;2022-11-15T02:52:56;97456.47;;;3.55;100.00
31346;BME280;21711;49.708;18.568;2022-11-15T02:55:46;97454.69;;;3.56;100.00
31346;BME280;21711;49.708;18.568;2022-11-15T02:59:03;97453.91;;;3.67;100.00
31346;BME280;21711;49.708;18.568;2022-11-15T03:02:16;97453.16;;;3.79;100.00
31346;BME280;21711;49.708;18.568;2022-11-15T03:09:17;97440.66;;;3.81;100.00
31346;BME280;21711;49.708;18.568;2022-11-15T03:12:27;97447.47;;;3.82;100.00
31346;BME280;21711;49.708;18.568;2022-11-15T03:15:36;97443.06;;;3.94;100.00
31346;BME280;21711;49.708;18.568;2022-11-15T03:18:32;97438.63;;;3.95;100.00
31346;BME280;21711;49.708;18.568;2022-11-15T03:21:20;97435.91;;;4.02;100.00
31346;BME280;21711;49.708;18.568;2022-11-15T03:24:08;97433.31;;;4.14;100.00
31346;BME280;21711;49.708;18.568;2022-11-15T03:26:55;97439.44;;;4.19;100.00
31346;BME280;21711;49.708;18.568;2022-11-15T03:29:49;97434.00;;;4.21;100.00
31346;BME280;21711;49.708;18.568;2022-11-15T03:32:47;97424.78;;;4.18;100.00
31346;BME280;21711;49.708;18.568;2022-11-15T03:35:42;97422.28;;;4.24;100.00
31346;BME280;21711;49.708;18.568;2022-11-15T03:38:32;97415.56;;;4.28;100.00
31346;BME280;21711;49.708;18.568;2022-11-15T03:41:29;97417.16;;;4.29;100.00
31346;BME280;21711;49.708;18.568;2022-11-15T03:44:40;97417.47;;;4.20;100.00
31346;BME280;21711;49.708;18.568;2022-11-15T03:47:34;97414.19;;;4.13;100.00
31346;BME280;21711;49.708;18.568;2022-11-15T03:50:23;97408.84;;;4.32;100.00
31346;BME280;21711;49.708;18.568;2022-11-15T03:53:10;97407.03;;;4.32;100.00
31346;BME280;21711;49.708;18.568;2022-11-15T03:55:56;97399.19;;;4.32;100.00
31346;BME280;21711;49.708;18.568;2022-11-15T03:58:42;97400.78;;;4.33;100.00
31346;BME280;21711;49.708;18.568;2022-11-15T04:01:28;97401.22;;;4.42;100.00
31346;BME280;21711;49.708;18.568;2022-11-15T04:04:14;97396.06;;;4.59;100.00
31346;BME280;21711;49.708;18.568;2022-11-15T04:07:00;97400.75;;;4.57;100.00
31346;BME280;21711;49.708;18.568;2022-11-15T04:09:46;97384.88;;;4.76;100.00
31346;BME280;21711;49.708;18.568;2022-11-15T04:12:47;97385.28;;;4.97;100.00
31346;BME280;21711;49.708;18.568;2022-11-15T04:15:34;97382.19;;;5.00;100.00
31346;BME280;21711;49.708;18.568;2022-11-15T04:18:20;97372.63;;;4.94;100.00
31346;BME280;21711;49.708;18.568;2022-11-15T04:21:08;97363.22;;;4.81;100.00
31346;BME280;21711;49.708;18.568;2022-11-15T04:24:12;97370.84;;;4.82;100.00
31346;BME280;21711;49.708;18.568;2022-11-15T04:26:59;97365.81;;;4.93;100.00
31346;BME280;21711;49.708;18.568;2022-11-15T04:29:45;97372.63;;;4.94;100.00
31346;BME280;21711;49.708;18.568;2022-11-15T04:32:30;97364.47;;;4.78;100.00
31346;BME280;21711;49.708;18.568;2022-11-15T04:35:16;97367.56;;;4.75;100.00
31346;BME280;21711;49.708;18.568;2022-11-15T04:38:04;97365.16;;;4.85;100.00
31346;BME280;21711;49.708;18.568;2022-11-15T04:40:50;97358.94;;;5.04;100.00
31346;BME280;21711;49.708;18.568;2022-11-15T04:43:35;97358.16;;;5.20;100.00
31346;BME280;21711;49.708;18.568;2022-11-15T04:46:23;97355.94;;;5.12;100.00
31346;BME280;21711;49.708;18.568;2022-11-15T04:49:09;97353.13;;;5.02;100.00
31346;BME280;21711;49.708;18.568;2022-11-15T04:51:55;97352.78;;;4.98;100.00
31346;BME280;21711;49.708;18.568;2022-11-15T04:54:41;97354.63;;;4.97;100.00
31346;BME280;21711;49.708;18.568;2022-11-15T04:57:28;97346.78;;;4.97;100.00
31346;BME280;21711;49.708;18.568;2022-11-15T05:00:16;97340.81;;;5.02;100.00
31346;BME280;21711;49.708;18.568;2022-11-15T05:03:02;97337.00;;;5.10;100.00
31346;BME280;21711;49.708;18.568;2022-11-15T05:06:06;97324.81;;;5.16;100.00
31346;BME280;21711;49.708;18.568;2022-11-15T05:08:53;97332.56;;;5.10;100.00
31346;BME280;21711;49.708;18.568;2022-11-15T05:11:39;97330.19;;;5.09;100.00
31346;BME280;21711;49.708;18.568;2022-11-15T05:14:25;97331.59;;;4.99;100.00
31346;BME280;21711;49.708;18.568;2022-11-15T05:17:10;97328.06;;;4.94;100.00
31346;BME280;21711;49.708;18.568;2022-11-15T05:19:56;97329.25;;;4.86;100.00
31346;BME280;21711;49.708;18.568;2022-11-15T05:22:42;97322.88;;;4.82;100.00
31346;BME280;21711;49.708;18.568;2022-11-15T05:25:28;97323.72;;;4.70;100.00
31346;BME280;21711;49.708;18.568;2022-11-15T05:28:14;97318.47;;;4.70;100.00
31346;BME280;21711;49.708;18.568;2022-11-15T05:31:09;97328.81;;;4.77;100.00
31346;BME280;21711;49.708;18.568;2022-11-15T05:33:56;97327.13;;;4.83;100.00
31346;BME280;21711;49.708;18.568;2022-11-15T05:36:44;97321.16;;;4.87;100.00
31346;BME280;21711;49.708;18.568;2022-11-15T05:39:33;97322.31;;;5.09;100.00
31346;BME280;21711;49.708;18.568;2022-11-15T05:42:19;97316.19;;;5.32;100.00
31346;BME280;21711;49.708;18.568;2022-11-15T05:45:06;97318.16;;;5.42;100.00
31346;BME280;21711;49.708;18.568;2022-11-15T05:47:55;97317.13;;;5.60;100.00
31346;BME280;21711;49.708;18.568;2022-11-15T05:50:45;97314.50;;;5.60;100.00
31346;BME280;21711;49.708;18.568;2022-11-15T05:53:32;97317.94;;;5.44;100.00
31346;BME280;21711;49.708;18.568;2022-11-15T05:56:19;97319.81;;;5.48;100.00
31346;BME280;21711;49.708;18.568;2022-11-15T05:59:06;97320.94;;;5.52;100.00
31346;BME280;21711;49.708;18.568;2022-11-15T06:01:52;97314.91;;;5.52;100.00
31346;BME280;21711;49.708;18.568;2022-11-15T06:04:39;97314.69;;;5.71;100.00
31346;BME280;21711;49.708;18.568;2022-11-15T06:07:24;97317.53;;;5.69;100.00
31346;BME280;21711;49.708;18.568;2022-11-15T06:10:10;97312.69;;;5.61;100.00
31346;BME280;21711;49.708;18.568;2022-11-15T06:13:04;97310.88;;;5.44;100.00
31346;BME280;21711;49.708;18.568;2022-11-15T06:15:50;97313.00;;;5.47;100.00
31346;BME280;21711;49.708;18.568;2022-11-15T06:18:37;97322.38;;;5.60;100.00
31346;BME280;21711;49.708;18.568;2022-11-15T06:21:23;97319.81;;;5.48;100.00
31346;BME280;21711;49.708;18.568;2022-11-15T06:24:09;97319.06;;;5.65;100.00
31346;BME280;21711;49.708;18.568;2022-11-15T06:26:54;97325.81;;;5.78;100.00
31346;BME280;21711;49.708;18.568;2022-11-15T06:29:40;97328.81;;;5.87;100.00
31346;BME280;21711;49.708;18.568;2022-11-15T06:32:26;97330.31;;;6.00;100.00
31346;BME280;21711;49.708;18.568;2022-11-15T06:35:13;97329.75;;;6.15;100.00
31346;BME280;21711;49.708;18.568;2022-11-15T06:38:05;97337.00;;;6.25;100.00
31346;BME280;21711;49.708;18.568;2022-11-15T06:40:51;97338.41;;;6.55;100.00
31346;BME280;21711;49.708;18.568;2022-11-15T06:43:38;97336.78;;;6.71;100.00
31346;BME280;21711;49.708;18.568;2022-11-15T06:46:24;97337.88;;;6.75;100.00
31346;BME280;21711;49.708;18.568;2022-11-15T06:49:10;97330.47;;;6.94;100.00
31346;BME280;21711;49.708;18.568;2022-11-15T06:51:56;97325.53;;;7.31;100.00
31346;BME280;21711;49.708;18.568;2022-11-15T06:54:42;97329.00;;;7.69;100.00
31346;BME280;21711;49.708;18.568;2022-11-15T06:57:28;97330.63;;;7.70;100.00
31346;BME280;21711;49.708;18.568;2022-11-15T07:00:14;97343.44;;;7.61;100.00
31346;BME280;21711;49.708;18.568;2022-11-15T07:03:01;97332.88;;;7.56;100.00
31346;BME280;21711;49.708;18.568;2022-11-15T07:05:53;97344.03;;;7.69;100.00
31346;BME280;21711;49.708;18.568;2022-11-15T07:08:39;97343.47;;;7.99;100.00
31346;BME280;21711;49.708;18.568;2022-11-15T07:11:27;97348.47;;;8.01;100.00
31346;BME280;21711;49.708;18.568;2022-11-15T07:14:13;97345.97;;;7.84;100.00
31346;BME280;21711;49.708;18.568;2022-11-15T07:17:04;97346.66;;;7.69;100.00
31346;BME280;21711;49.708;18.568;2022-11-15T07:19:50;97338.34;;;7.82;100.00
31346;BME280;21711;49.708;18.568;2022-11-15T07:22:36;97332.09;;;7.94;100.00
31346;BME280;21711;49.708;18.568;2022-11-15T07:25:22;97331.25;;;7.88;100.00
31346;BME280;21711;49.708;18.568;2022-11-15T07:28:08;97333.25;;;7.70;100.00
31346;BME280;21711;49.708;18.568;2022-11-15T07:30:54;97335.44;;;7.84;100.00
31346;BME280;21711;49.708;18.568;2022-11-15T07:33:40;97341.16;;;7.70;100.00
31346;BME280;21711;49.708;18.568;2022-11-15T07:36:25;97344.28;;;7.67;100.00
31346;BME280;21711;49.708;18.568;2022-11-15T07:39:11;97351.09;;;7.63;100.00
31346;BME280;21711;49.708;18.568;2022-11-15T07:41:57;97339.53;;;7.69;100.00
31346;BME280;21711;49.708;18.568;2022-11-15T07:45:03;97343.38;;;7.89;100.00
31346;BME280;21711;49.708;18.568;2022-11-15T07:47:49;97348.06;;;7.82;100.00
31346;BME280;21711;49.708;18.568;2022-11-15T07:50:35;97355.16;;;7.81;100.00
31346;BME280;21711;49.708;18.568;2022-11-15T07:53:22;97350.25;;;7.90;100.00
31346;BME280;21711;49.708;18.568;2022-11-15T07:56:08;97352.13;;;7.62;100.00
31346;BME280;21711;49.708;18.568;2022-11-15T07:58:54;97354.88;;;7.45;100.00
31346;BME280;21711;49.708;18.568;2022-11-15T08:01:40;97349.25;;;8.01;100.00
31346;BME280;21711;49.708;18.568;2022-11-15T08:04:26;97346.25;;;7.82;100.00
31346;BME280;21711;49.708;18.568;2022-11-15T08:07:11;97347.78;;;7.78;100.00
31346;BME280;21711;49.708;18.568;2022-11-15T08:09:58;97348.16;;;7.59;100.00
31346;BME280;21711;49.708;18.568;2022-11-15T08:12:44;97347.72;;;7.68;100.00
31346;BME280;21711;49.708;18.568;2022-11-15T08:15:31;97346.13;;;7.72;100.00
31346;BME280;21711;49.708;18.568;2022-11-15T08:18:17;97345.44;;;7.82;100.00
31346;BME280;21711;49.708;18.568;2022-11-15T08:21:04;97333.81;;;7.78;100.00
31346;BME280;21711;49.708;18.568;2022-11-15T08:23:50;97332.69;;;8.06;100.00
31346;BME280;21711;49.708;18.568;2022-11-15T08:26:36;97334.81;;;8.58;100.00
31346;BME280;21711;49.708;18.568;2022-11-15T08:29:22;97329.31;;;8.64;100.00
31346;BME280;21711;49.708;18.568;2022-11-15T08:32:08;97328.69;;;8.52;100.00
31346;BME280;21711;49.708;18.568;2022-11-15T08:34:54;97323.09;;;8.97;100.00
31346;BME280;21711;49.708;18.568;2022-11-15T08:37:40;97326.25;;;8.99;100.00
31346;BME280;21711;49.708;18.568;2022-11-15T08:40:26;97318.41;;;9.40;100.00
31346;BME280;21711;49.708;18.568;2022-11-15T08:43:12;97319.72;;;9.79;100.00
31346;BME280;21711;49.708;18.568;2022-11-15T08:45:58;97325.78;;;9.90;100.00
31346;BME280;21711;49.708;18.568;2022-11-15T08:48:44;97324.16;;;10.05;100.00
31346;BME280;21711;49.708;18.568;2022-11-15T08:51:30;97321.53;;;9.94;100.00
31346;BME280;21711;49.708;18.568;2022-11-15T08:54:16;97316.75;;;10.17;100.00
31346;BME280;21711;49.708;18.568;2022-11-15T08:57:02;97321.47;;;10.31;100.00
31346;BME280;21711;49.708;18.568;2022-11-15T08:59:48;97316.97;;;10.42;100.00
31346;BME280;21711;49.708;18.568;2022-11-15T09:02:34;97320.13;;;10.49;100.00
31346;BME280;21711;49.708;18.568;2022-11-15T09:05:20;97326.75;;;10.36;100.00
31346;BME280;21711;49.708;18.568;2022-11-15T09:08:06;97320.34;;;10.52;100.00
31346;BME280;21711;49.708;18.568;2022-11-15T09:11:12;97327.47;;;10.62;100.00
31346;BME280;21711;49.708;18.568;2022-11-15T09:13:58;97317.38;;;10.75;100.00
31346;BME280;21711;49.708;18.568;2022-11-15T09:16:43;97314.06;;;10.48;100.00
31346;BME280;21711;49.708;18.568;2022-11-15T09:19:30;97320.94;;;10.34;100.00
31346;BME280;21711;49.708;18.568;2022-11-15T09:22:16;97314.72;;;10.80;100.00
31346;BME280;21711;49.708;18.568;2022-11-15T09:25:02;97304.53;;;11.03;100.00
31346;BME280;21711;49.708;18.568;2022-11-15T09:27:54;97306.31;;;11.13;100.00
31346;BME280;21711;49.708;18.568;2022-11-15T09:30:40;97300.88;;;11.34;100.00
31346;BME280;21711;49.708;18.568;2022-11-15T09:33:27;97291.66;;;11.61;100.00
31346;BME280;21711;49.708;18.568;2022-11-15T09:36:14;97294.63;;;11.83;100.00
31346;BME280;21711;49.708;18.568;2022-11-15T09:39:00;97296.50;;;12.13;100.00
31346;BME280;21711;49.708;18.568;2022-11-15T09:45:26;97286.00;;;12.70;100.00
31346;BME280;21711;49.708;18.568;2022-11-15T09:51:36;97285.75;;;13.44;100.00
31346;BME280;21711;49.708;18.568;2022-11-15T09:54:35;97275.63;;;13.65;100.00
31346;BME280;21711;49.708;18.568;2022-11-15T09:57:33;97266.94;;;13.59;100.00
31346;BME280;21711;49.708;18.568;2022-11-15T10:00:21;97264.34;;;13.21;100.00
31346;BME280;21711;49.708;18.568;2022-11-15T10:03:22;97258.41;;;12.91;100.00
31346;BME280;21711;49.708;18.568;2022-11-15T10:05:52;97250.94;;;12.93;100.00
31346;BME280;21711;49.708;18.568;2022-11-15T10:11:29;97251.28;;;12.47;100.00
31346;BME280;21711;49.708;18.568;2022-11-15T10:14:27;97249.78;;;12.60;100.00
31346;BME280;21711;49.708;18.568;2022-11-15T10:19:34;97249.28;;;12.78;100.00
31346;BME280;21711;49.708;18.568;2022-11-15T10:27:42;97237.34;;;13.66;100.00
31346;BME280;21711;49.708;18.568;2022-11-15T10:30:13;97237.34;;;13.80;100.00
31346;BME280;21711;49.708;18.568;2022-11-15T10:32:43;97240.78;;;14.23;100.00
31346;BME280;21711;49.708;18.568;2022-11-15T10:35:27;97236.56;;;14.22;100.00
31346;BME280;21711;49.708;18.568;2022-11-15T10:38:09;97232.69;;;14.28;100.00
31346;BME280;21711;49.708;18.568;2022-11-15T10:40:39;97227.66;;;14.54;100.00
31346;BME280;21711;49.708;18.568;2022-11-15T10:45:38;97225.63;;;15.11;100.00
31346;BME280;21711;49.708;18.568;2022-11-15T10:50:45;97212.88;;;15.62;100.00
31346;BME280;21711;49.708;18.568;2022-11-15T10:53:33;97216.16;;;16.67;100.00
31346;BME280;21711;49.708;18.568;2022-11-15T10:56:11;97210.03;;;16.84;100.00
31346;BME280;21711;49.708;18.568;2022-11-15T10:58:44;97216.47;;;16.39;100.00
31346;BME280;21711;49.708;18.568;2022-11-15T11:01:22;97207.69;;;16.65;100.00
31346;BME280;21711;49.708;18.568;2022-11-15T11:04:08;97210.00;;;15.82;100.00
31346;BME280;21711;49.708;18.568;2022-11-15T11:06:58;97203.69;;;15.69;100.00
31346;BME280;21711;49.708;18.568;2022-11-15T11:09:37;97201.38;;;15.85;76.44
31346;BME280;21711;49.708;18.568;2022-11-15T11:12:09;97190.00;;;15.61;79.79
31346;BME280;21711;49.708;18.568;2022-11-15T11:14:39;97191.56;;;15.62;79.96
31346;BME280;21711;49.708;18.568;2022-11-15T11:23:32;97177.00;;;14.09;85.73
31346;BME280;21711;49.708;18.568;2022-11-15T11:26:35;97178.03;;;14.36;85.14
31346;BME280;21711;49.708;18.568;2022-11-15T11:31:43;97179.88;;;14.72;83.39
31346;BME280;21711;49.708;18.568;2022-11-15T11:34:45;97171.59;;;14.73;85.09
31346;BME280;21711;49.708;18.568;2022-11-15T11:40:39;97163.66;;;14.96;82.06
31346;BME280;21711;49.708;18.568;2022-11-15T11:43:34;97154.69;;;15.15;82.21
31346;BME280;21711;49.708;18.568;2022-11-15T11:46:32;97152.41;;;15.31;83.74
31346;BME280;21711;49.708;18.568;2022-11-15T11:55:28;97135.81;;;14.80;86.58
31346;BME280;21711;49.708;18.568;2022-11-15T12:06:56;97110.03;;;14.66;87.07
31346;BME280;21711;49.708;18.568;2022-11-15T12:12:41;97103.56;;;14.36;90.18
31346;BME280;21711;49.708;18.568;2022-11-15T12:15:19;97109.47;;;14.32;91.71
31346;BME280;21711;49.708;18.568;2022-11-15T12:17:48;97107.47;;;14.15;93.79
31346;BME280;21711;49.708;18.568;2022-11-15T12:20:31;97102.44;;;14.14;92.97
31346;BME280;21711;49.708;18.568;2022-11-15T12:23:19;97103.44;;;14.04;91.37
31346;BME280;21711;49.708;18.568;2022-11-15T12:26:04;97094.50;;;13.86;94.21
31346;BME280;21711;49.708;18.568;2022-11-15T12:28:55;97088.72;;;13.84;94.31
31346;BME280;21711;49.708;18.568;2022-11-15T12:34:15;97084.22;;;13.70;96.13
31346;BME280;21711;49.708;18.568;2022-11-15T12:36:56;97081.53;;;13.56;99.18
31346;BME280;21711;49.708;18.568;2022-11-15T12:40:16;97077.78;;;13.43;100.00
31346;BME280;21711;49.708;18.568;2022-11-15T12:45:52;97072.38;;;13.76;97.62
31346;BME280;21711;49.708;18.568;2022-11-15T12:50:53;97069.78;;;13.99;98.37
31346;BME280;21711;49.708;18.568;2022-11-15T12:58:46;97071.19;;;13.83;99.93
31346;BME280;21711;49.708;18.568;2022-11-15T13:06:51;97057.25;;;13.63;100.00
31346;BME280;21711;49.708;18.568;2022-11-15T13:14:56;97046.03;;;13.10;100.00
31346;BME280;21711;49.708;18.568;2022-11-15T13:20:19;97042.88;;;12.60;100.00
31346;BME280;21711;49.708;18.568;2022-11-15T13:34:02;97026.91;;;11.94;100.00
31346;BME280;21711;49.708;18.568;2022-11-15T13:36:50;97033.41;;;11.82;100.00
31346;BME280;21711;49.708;18.568;2022-11-15T13:39:30;97029.09;;;11.67;100.00
31346;BME280;21711;49.708;18.568;2022-11-15T13:41:59;97030.75;;;11.63;100.00
31346;BME280;21711;49.708;18.568;2022-11-15T13:44:32;97023.31;;;11.65;100.00
31346;BME280;21711;49.708;18.568;2022-11-15T13:47:18;97021.69;;;11.69;100.00
31346;BME280;21711;49.708;18.568;2022-11-15T13:49:46;97026.16;;;11.50;100.00
31346;BME280;21711;49.708;18.568;2022-11-15T13:52:14;97015.78;;;11.53;100.00
31346;BME280;21711;49.708;18.568;2022-11-15T13:57:23;97014.25;;;11.47;100.00
31346;BME280;21711;49.708;18.568;2022-11-15T13:59:55;97019.88;;;11.21;100.00
31346;BME280;21711;49.708;18.568;2022-11-15T14:02:33;97014.59;;;11.21;100.00
31346;BME280;21711;49.708;18.568;2022-11-15T14:05:23;97015.81;;;11.29;100.00
31346;BME280;21711;49.708;18.568;2022-11-15T14:10:33;97008.88;;;11.09;100.00
31346;BME280;21711;49.708;18.568;2022-11-15T14:13:03;97003.88;;;11.07;100.00
31346;BME280;21711;49.708;18.568;2022-11-15T14:15:34;96999.72;;;11.01;100.00
31346;BME280;21711;49.708;18.568;2022-11-15T14:18:04;96997.06;;;11.01;100.00
31346;BME280;21711;49.708;18.568;2022-11-15T14:20:39;97006.09;;;11.00;100.00
31346;BME280;21711;49.708;18.568;2022-11-15T14:23:25;96998.41;;;10.98;100.00
31346;BME280;21711;49.708;18.568;2022-11-15T14:25:58;97002.56;;;11.04;100.00
31346;BME280;21711;49.708;18.568;2022-11-15T14:30:56;97001.72;;;10.85;100.00
31346;BME280;21711;49.708;18.568;2022-11-15T14:33:36;96994.94;;;10.78;100.00
31346;BME280;21711;49.708;18.568;2022-11-15T14:36:18;96995.84;;;10.63;100.00
31346;BME280;21711;49.708;18.568;2022-11-15T14:38:47;96989.84;;;10.58;100.00
31346;BME280;21711;49.708;18.568;2022-11-15T14:41:24;96980.94;;;10.48;100.00
31346;BME280;21711;49.708;18.568;2022-11-15T14:43:52;96984.69;;;10.37;100.00
31346;BME280;21711;49.708;18.568;2022-11-15T14:46:20;96981.06;;;10.27;100.00
31346;BME280;21711;49.708;18.568;2022-11-15T14:48:47;96985.63;;;10.22;100.00
31346;BME280;21711;49.708;18.568;2022-11-15T14:51:17;96976.41;;;10.14;100.00
31346;BME280;21711;49.708;18.568;2022-11-15T14:53:46;96974.38;;;10.06;100.00
31346;BME280;21711;49.708;18.568;2022-11-15T14:56:14;96976.81;;;9.97;100.00
31346;BME280;21711;49.708;18.568;2022-11-15T14:58:43;96979.19;;;9.98;100.00
31346;BME280;21711;49.708;18.568;2022-11-15T15:01:26;96974.44;;;9.95;100.00
31346;BME280;21711;49.708;18.568;2022-11-15T15:03:54;96969.16;;;9.95;100.00
31346;BME280;21711;49.708;18.568;2022-11-15T15:06:24;96966.81;;;9.94;100.00
31346;BME280;21711;49.708;18.568;2022-11-15T15:08:51;96969.50;;;9.83;100.00
31346;BME280;21711;49.708;18.568;2022-11-15T15:11:26;96965.59;;;9.76;100.00
31346;BME280;21711;49.708;18.568;2022-11-15T15:13:54;96965.84;;;9.79;100.00
31346;BME280;21711;49.708;18.568;2022-11-15T15:16:27;96961.31;;;9.85;100.00
31346;BME280;21711;49.708;18.568;2022-11-15T15:18:54;96962.88;;;9.86;100.00
31346;BME280;21711;49.708;18.568;2022-11-15T15:21:27;96962.88;;;9.86;100.00
31346;BME280;21711;49.708;18.568;2022-11-15T15:24:02;96964.13;;;9.99;100.00
31346;BME280;21711;49.708;18.568;2022-11-15T15:26:29;96957.69;;;10.10;100.00
31346;BME280;21711;49.708;18.568;2022-11-15T15:29:00;96966.91;;;10.13;100.00
31346;BME280;21711;49.708;18.568;2022-11-15T15:31:27;96960.00;;;9.82;100.00
31346;BME280;21711;49.708;18.568;2022-11-15T15:33:55;96954.75;;;9.77;100.00
31346;BME280;21711;49.708;18.568;2022-11-15T15:36:22;96949.94;;;9.90;100.00
31346;BME280;21711;49.708;18.568;2022-11-15T15:38:49;96951.66;;;10.05;100.00
31346;BME280;21711;49.708;18.568;2022-11-15T15:41:17;96947.66;;;10.12;100.00
31346;BME280;21711;49.708;18.568;2022-11-15T15:43:44;96944.16;;;10.17;100.00
31346;BME280;21711;49.708;18.568;2022-11-15T15:46:17;96944.97;;;10.18;100.00
31346;BME280;21711;49.708;18.568;2022-11-15T15:48:45;96940.97;;;10.20;100.00
31346;BME280;21711;49.708;18.568;2022-11-15T15:51:12;96944.38;;;10.21;100.00
31346;BME280;21711;49.708;18.568;2022-11-15T15:53:47;96941.28;;;10.13;100.00
31346;BME280;21711;49.708;18.568;2022-11-15T15:56:15;96945.72;;;10.18;100.00
31346;BME280;21711;49.708;18.568;2022-11-15T15:58:42;96940.97;;;10.20;100.00
31346;BME280;21711;49.708;18.568;2022-11-15T16:01:09;96942.81;;;10.20;100.00
31346;BME280;21711;49.708;18.568;2022-11-15T16:03:37;96930.72;;;10.13;100.00
31346;BME280;21711;49.708;18.568;2022-11-15T16:06:04;96925.22;;;10.10;100.00
31346;BME280;21711;49.708;18.568;2022-11-15T16:08:32;96926.56;;;10.02;100.00
31346;BME280;21711;49.708;18.568;2022-11-15T16:11:19;96921.38;;;9.92;100.00
31346;BME280;21711;49.708;18.568;2022-11-15T16:13:46;96920.59;;;9.91;100.00
31346;BME280;21711;49.708;18.568;2022-11-15T16:16:14;96929.34;;;9.86;100.00
31346;BME280;21711;49.708;18.568;2022-11-15T16:18:42;96928.81;;;9.90;100.00
31346;BME280;21711;49.708;18.568;2022-11-15T16:21:09;96931.22;;;9.81;100.00